sensor_id;sensor_type;location;lat;lon;timestamp;P1;durP1;ratioP1;P2;durP2;ratioP2
2810;SDS011;1413;52.440;13.506;2022-10-16T00:00:02;4.55;;;1.70;;
2810;SDS011;1413;52.440;13.506;2022-10-16T00:02:30;6.05;;;2.40;;
2810;SDS011;1413;52.440;13.506;2022-10-16T00:04:59;4.03;;;2.10;;
2810;SDS011;1413;52.440;13.506;2022-10-16T00:07:26;5.57;;;2.20;;
2810;SDS011;1413;52.440;13.506;2022-10-16T00:09:54;4.00;;;1.70;;
2810;SDS011;1413;52.440;13.506;2022-10-16T00:12:25;4.35;;;1.98;;
2810;SDS011;1413;52.440;13.506;2022-10-16T00:14:53;5.13;;;1.90;;
2810;SDS011;1413;52.440;13.506;2022-10-16T00:17:21;4.65;;;1.80;;
2810;SDS011;1413;52.440;13.506;2022-10-16T00:19:48;4.38;;;2.08;;
2810;SDS011;1413;52.440;13.506;2022-10-16T00:22:17;3.83;;;1.80;;
2810;SDS011;1413;52.440;13.506;2022-10-16T00:24:44;4.80;;;1.85;;
2810;SDS011;1413;52.440;13.506;2022-10-16T00:27:12;3.40;;;1.60;;
2810;SDS011;1413;52.440;13.506;2022-10-16T00:29:39;4.80;;;1.73;;
2810;SDS011;1413;52.440;13.506;2022-10-16T00:32:06;4.72;;;2.00;;
2810;SDS011;1413;52.440;13.506;2022-10-16T00:34:34;4.60;;;1.60;;
2810;SDS011;1413;52.440;13.506;2022-10-16T00:37:02;3.03;;;1.63;;
2810;SDS011;1413;52.440;13.506;2022-10-16T00:39:31;3.25;;;1.65;;
2810;SDS011;1413;52.440;13.506;2022-10-16T00:41:58;4.40;;;1.75;;
2810;SDS011;1413;52.440;13.506;2022-10-16T00:44:45;3.45;;;1.80;;
2810;SDS011;1413;52.440;13.506;2022-10-16T00:47:15;2.83;;;1.30;;
2810;SDS011;1413;52.440;13.506;2022-10-16T00:49:44;3.85;;;1.77;;
2810;SDS011;1413;52.440;13.506;2022-10-16T00:52:12;3.05;;;1.45;;
2810;SDS011;1413;52.440;13.506;2022-10-16T00:54:41;5.05;;;1.50;;
2810;SDS011;1413;52.440;13.506;2022-10-16T00:57:09;3.08;;;1.50;;
2810;SDS011;1413;52.440;13.506;2022-10-16T00:59:37;3.75;;;1.73;;
2810;SDS011;1413;52.440;13.506;2022-10-16T01:02:05;3.10;;;1.13;;
2810;SDS011;1413;52.440;13.506;2022-10-16T01:04:34;5.05;;;2.20;;
2810;SDS011;1413;52.440;13.506;2022-10-16T01:07:06;3.03;;;1.13;;
2810;SDS011;1413;52.440;13.506;2022-10-16T01:09:37;2.85;;;1.42;;
2810;SDS011;1413;52.440;13.506;2022-10-16T01:12:12;3.38;;;1.58;;
2810;SDS011;1413;52.440;13.506;2022-10-16T01:14:43;3.35;;;1.65;;
2810;SDS011;1413;52.440;13.506;2022-10-16T01:17:13;3.75;;;1.60;;
2810;SDS011;1413;52.440;13.506;2022-10-16T01:19:50;3.70;;;1.80;;
2810;SDS011;1413;52.440;13.506;2022-10-16T01:22:20;3.40;;;1.50;;
2810;SDS011;1413;52.440;13.506;2022-10-16T01:24:51;4.53;;;1.50;;
2810;SDS011;1413;52.440;13.506;2022-10-16T01:27:22;3.65;;;1.80;;
2810;SDS011;1413;52.440;13.506;2022-10-16T01:29:53;3.22;;;1.67;;
2810;SDS011;1413;52.440;13.506;2022-10-16T01:32:23;3.45;;;1.60;;
2810;SDS011;1413;52.440;13.506;2022-10-16T01:34:53;4.05;;;1.70;;
2810;SDS011;1413;52.440;13.506;2022-10-16T01:37:25;4.78;;;1.77;;
2810;SDS011;1413;52.440;13.506;2022-10-16T01:39:55;3.03;;;1.48;;
2810;SDS011;1413;52.440;13.506;2022-10-16T01:42:28;4.25;;;1.98;;
2810;SDS011;1413;52.440;13.506;2022-10-16T01:44:56;4.43;;;1.70;;
2810;SDS011;1413;52.440;13.506;2022-10-16T01:47:25;2.70;;;1.38;;
2810;SDS011;1413;52.440;13.506;2022-10-16T01:49:54;2.58;;;1.10;;
2810;SDS011;1413;52.440;13.506;2022-10-16T01:52:23;3.05;;;1.35;;
2810;SDS011;1413;52.440;13.506;2022-10-16T01:54:53;4.57;;;1.48;;
2810;SDS011;1413;52.440;13.506;2022-10-16T01:57:21;2.83;;;1.50;;
2810;SDS011;1413;52.440;13.506;2022-10-16T01:59:52;3.00;;;1.50;;
2810;SDS011;1413;52.440;13.506;2022-10-16T02:02:21;2.90;;;1.40;;
2810;SDS011;1413;52.440;13.506;2022-10-16T02:04:51;4.43;;;1.30;;
2810;SDS011;1413;52.440;13.506;2022-10-16T02:07:20;3.67;;;1.45;;
2810;SDS011;1413;52.440;13.506;2022-10-16T02:09:47;2.80;;;1.40;;
2810;SDS011;1413;52.440;13.506;2022-10-16T02:12:15;2.95;;;1.23;;
2810;SDS011;1413;52.440;13.506;2022-10-16T02:14:46;3.40;;;1.17;;
2810;SDS011;1413;52.440;13.506;2022-10-16T02:17:16;4.97;;;1.50;;
2810;SDS011;1413;52.440;13.506;2022-10-16T02:19:44;3.83;;;1.25;;
2810;SDS011;1413;52.440;13.506;2022-10-16T02:22:14;2.75;;;1.23;;
2810;SDS011;1413;52.440;13.506;2022-10-16T02:24:45;2.72;;;1.00;;
2810;SDS011;1413;52.440;13.506;2022-10-16T02:27:18;3.03;;;1.23;;
2810;SDS011;1413;52.440;13.506;2022-10-16T02:29:47;2.90;;;1.30;;
2810;SDS011;1413;52.440;13.506;2022-10-16T02:32:19;3.05;;;1.15;;
2810;SDS011;1413;52.440;13.506;2022-10-16T02:34:48;5.78;;;1.30;;
2810;SDS011;1413;52.440;13.506;2022-10-16T02:37:16;4.15;;;1.40;;
2810;SDS011;1413;52.440;13.506;2022-10-16T02:39:44;3.50;;;1.42;;
2810;SDS011;1413;52.440;13.506;2022-10-16T02:42:12;3.15;;;1.20;;
2810;SDS011;1413;52.440;13.506;2022-10-16T02:44:39;3.63;;;1.20;;
2810;SDS011;1413;52.440;13.506;2022-10-16T02:47:06;3.72;;;1.27;;
2810;SDS011;1413;52.440;13.506;2022-10-16T02:49:35;3.13;;;1.20;;
2810;SDS011;1413;52.440;13.506;2022-10-16T02:52:03;2.63;;;1.20;;
2810;SDS011;1413;52.440;13.506;2022-10-16T02:54:30;3.67;;;1.13;;
2810;SDS011;1413;52.440;13.506;2022-10-16T02:56:58;3.25;;;1.48;;
2810;SDS011;1413;52.440;13.506;2022-10-16T02:59:25;2.90;;;1.20;;
2810;SDS011;1413;52.440;13.506;2022-10-16T03:01:52;2.95;;;1.17;;
2810;SDS011;1413;52.440;13.506;2022-10-16T03:04:20;3.40;;;1.10;;
2810;SDS011;1413;52.440;13.506;2022-10-16T03:06:49;4.13;;;1.25;;
2810;SDS011;1413;52.440;13.506;2022-10-16T03:09:16;3.13;;;1.20;;
2810;SDS011;1413;52.440;13.506;2022-10-16T03:11:43;3.22;;;1.40;;
2810;SDS011;1413;52.440;13.506;2022-10-16T03:14:11;2.67;;;1.25;;
2810;SDS011;1413;52.440;13.506;2022-10-16T03:16:38;3.20;;;1.00;;
2810;SDS011;1413;52.440;13.506;2022-10-16T03:19:05;3.38;;;1.17;;
2810;SDS011;1413;52.440;13.506;2022-10-16T03:21:33;4.90;;;1.25;;
2810;SDS011;1413;52.440;13.506;2022-10-16T03:24:02;3.03;;;1.20;;
2810;SDS011;1413;52.440;13.506;2022-10-16T03:26:29;2.78;;;1.02;;
2810;SDS011;1413;52.440;13.506;2022-10-16T03:28:56;5.03;;;1.60;;
2810;SDS011;1413;52.440;13.506;2022-10-16T03:31:24;2.53;;;1.35;;
2810;SDS011;1413;52.440;13.506;2022-10-16T03:33:51;4.00;;;1.58;;
2810;SDS011;1413;52.440;13.506;2022-10-16T03:36:19;4.75;;;1.40;;
2810;SDS011;1413;52.440;13.506;2022-10-16T03:38:46;3.67;;;1.42;;
2810;SDS011;1413;52.440;13.506;2022-10-16T03:41:15;4.68;;;1.35;;
2810;SDS011;1413;52.440;13.506;2022-10-16T03:43:42;3.88;;;1.40;;
2810;SDS011;1413;52.440;13.506;2022-10-16T03:46:10;3.08;;;1.30;;
2810;SDS011;1413;52.440;13.506;2022-10-16T03:48:37;3.00;;;1.50;;
2810;SDS011;1413;52.440;13.506;2022-10-16T03:51:06;5.75;;;1.58;;
2810;SDS011;1413;52.440;13.506;2022-10-16T03:53:33;5.00;;;1.70;;
2810;SDS011;1413;52.440;13.506;2022-10-16T03:56:00;4.30;;;1.40;;
2810;SDS011;1413;52.440;13.506;2022-10-16T03:58:29;3.08;;;1.42;;
2810;SDS011;1413;52.440;13.506;2022-10-16T04:00:56;2.72;;;1.27;;
2810;SDS011;1413;52.440;13.506;2022-10-16T04:03:24;3.08;;;1.40;;
2810;SDS011;1413;52.440;13.506;2022-10-16T04:05:51;5.95;;;1.55;;
2810;SDS011;1413;52.440;13.506;2022-10-16T04:08:19;4.15;;;1.70;;
2810;SDS011;1413;52.440;13.506;2022-10-16T04:10:46;3.00;;;1.27;;
2810;SDS011;1413;52.440;13.506;2022-10-16T04:13:14;3.10;;;1.60;;
2810;SDS011;1413;52.440;13.506;2022-10-16T04:15:43;3.95;;;1.50;;
2810;SDS011;1413;52.440;13.506;2022-10-16T04:18:11;3.50;;;1.48;;
2810;SDS011;1413;52.440;13.506;2022-10-16T04:20:38;3.38;;;1.40;;
2810;SDS011;1413;52.440;13.506;2022-10-16T04:23:06;4.97;;;1.65;;
2810;SDS011;1413;52.440;13.506;2022-10-16T04:25:33;4.05;;;1.70;;
2810;SDS011;1413;52.440;13.506;2022-10-16T04:28:01;4.32;;;1.25;;
2810;SDS011;1413;52.440;13.506;2022-10-16T04:30:28;3.83;;;1.33;;
2810;SDS011;1413;52.440;13.506;2022-10-16T04:32:57;3.53;;;1.45;;
2810;SDS011;1413;52.440;13.506;2022-10-16T04:35:29;3.45;;;1.73;;
2810;SDS011;1413;52.440;13.506;2022-10-16T04:37:57;2.85;;;1.23;;
2810;SDS011;1413;52.440;13.506;2022-10-16T04:40:24;5.60;;;1.52;;
2810;SDS011;1413;52.440;13.506;2022-10-16T04:42:52;2.95;;;1.38;;
2810;SDS011;1413;52.440;13.506;2022-10-16T04:45:19;3.00;;;1.55;;
2810;SDS011;1413;52.440;13.506;2022-10-16T04:47:46;4.53;;;1.50;;
2810;SDS011;1413;52.440;13.506;2022-10-16T04:50:15;4.00;;;1.70;;
2810;SDS011;1413;52.440;13.506;2022-10-16T04:52:43;9.40;;;3.40;;
2810;SDS011;1413;52.440;13.506;2022-10-16T04:55:10;3.95;;;1.80;;
2810;SDS011;1413;52.440;13.506;2022-10-16T04:57:38;3.38;;;1.67;;
2810;SDS011;1413;52.440;13.506;2022-10-16T05:00:06;3.60;;;1.98;;
2810;SDS011;1413;52.440;13.506;2022-10-16T05:02:34;4.30;;;1.80;;
2810;SDS011;1413;52.440;13.506;2022-10-16T05:05:01;3.50;;;1.90;;
2810;SDS011;1413;52.440;13.506;2022-10-16T05:07:30;6.28;;;1.92;;
2810;SDS011;1413;52.440;13.506;2022-10-16T05:09:57;4.35;;;1.60;;
2810;SDS011;1413;52.440;13.506;2022-10-16T05:12:25;4.72;;;1.77;;
2810;SDS011;1413;52.440;13.506;2022-10-16T05:14:52;6.15;;;2.03;;
2810;SDS011;1413;52.440;13.506;2022-10-16T05:17:24;4.50;;;1.70;;
2810;SDS011;1413;52.440;13.506;2022-10-16T05:19:52;4.78;;;1.83;;
2810;SDS011;1413;52.440;13.506;2022-10-16T05:22:20;3.25;;;1.70;;
2810;SDS011;1413;52.440;13.506;2022-10-16T05:24:48;7.15;;;2.20;;
2810;SDS011;1413;52.440;13.506;2022-10-16T05:27:16;4.55;;;1.80;;
2810;SDS011;1413;52.440;13.506;2022-10-16T05:29:45;4.18;;;1.77;;
2810;SDS011;1413;52.440;13.506;2022-10-16T05:32:13;3.42;;;1.70;;
2810;SDS011;1413;52.440;13.506;2022-10-16T05:34:41;3.58;;;1.80;;
2810;SDS011;1413;52.440;13.506;2022-10-16T05:37:08;4.10;;;1.70;;
2810;SDS011;1413;52.440;13.506;2022-10-16T05:39:37;4.28;;;1.80;;
2810;SDS011;1413;52.440;13.506;2022-10-16T05:42:06;3.30;;;1.60;;
2810;SDS011;1413;52.440;13.506;2022-10-16T05:44:33;3.17;;;1.52;;
2810;SDS011;1413;52.440;13.506;2022-10-16T05:47:01;4.35;;;1.80;;
2810;SDS011;1413;52.440;13.506;2022-10-16T05:49:28;3.72;;;1.80;;
2810;SDS011;1413;52.440;13.506;2022-10-16T05:51:55;4.38;;;1.90;;
2810;SDS011;1413;52.440;13.506;2022-10-16T05:54:23;4.00;;;1.80;;
2810;SDS011;1413;52.440;13.506;2022-10-16T05:56:50;5.38;;;1.90;;
2810;SDS011;1413;52.440;13.506;2022-10-16T05:59:19;6.60;;;1.80;;
2810;SDS011;1413;52.440;13.506;2022-10-16T06:01:46;3.88;;;2.00;;
2810;SDS011;1413;52.440;13.506;2022-10-16T06:04:14;4.57;;;2.00;;
2810;SDS011;1413;52.440;13.506;2022-10-16T06:06:41;3.92;;;2.17;;
2810;SDS011;1413;52.440;13.506;2022-10-16T06:09:09;8.57;;;2.60;;
2810;SDS011;1413;52.440;13.506;2022-10-16T06:11:36;3.95;;;2.00;;
2810;SDS011;1413;52.440;13.506;2022-10-16T06:14:04;4.18;;;1.90;;
2810;SDS011;1413;52.440;13.506;2022-10-16T06:16:34;6.35;;;1.88;;
2810;SDS011;1413;52.440;13.506;2022-10-16T06:19:02;5.32;;;2.03;;
2810;SDS011;1413;52.440;13.506;2022-10-16T06:21:32;3.40;;;1.60;;
2810;SDS011;1413;52.440;13.506;2022-10-16T06:24:00;4.32;;;1.70;;
2810;SDS011;1413;52.440;13.506;2022-10-16T06:26:28;4.40;;;1.75;;
2810;SDS011;1413;52.440;13.506;2022-10-16T06:28:56;3.22;;;1.38;;
2810;SDS011;1413;52.440;13.506;2022-10-16T06:31:24;3.58;;;1.92;;
2810;SDS011;1413;52.440;13.506;2022-10-16T06:33:55;3.75;;;1.50;;
2810;SDS011;1413;52.440;13.506;2022-10-16T06:36:23;3.35;;;1.30;;
2810;SDS011;1413;52.440;13.506;2022-10-16T06:38:50;4.63;;;1.58;;
2810;SDS011;1413;52.440;13.506;2022-10-16T06:41:19;4.57;;;1.33;;
2810;SDS011;1413;52.440;13.506;2022-10-16T06:43:47;2.95;;;1.30;;
2810;SDS011;1413;52.440;13.506;2022-10-16T06:46:15;4.30;;;1.35;;
2810;SDS011;1413;52.440;13.506;2022-10-16T06:48:42;3.05;;;1.30;;
2810;SDS011;1413;52.440;13.506;2022-10-16T06:51:12;4.18;;;1.23;;
2810;SDS011;1413;52.440;13.506;2022-10-16T06:53:40;3.00;;;1.40;;
2810;SDS011;1413;52.440;13.506;2022-10-16T06:56:28;3.83;;;1.40;;
2810;SDS011;1413;52.440;13.506;2022-10-16T06:58:57;2.90;;;1.23;;
2810;SDS011;1413;52.440;13.506;2022-10-16T07:01:25;3.22;;;1.40;;
2810;SDS011;1413;52.440;13.506;2022-10-16T07:03:53;3.40;;;1.13;;
2810;SDS011;1413;52.440;13.506;2022-10-16T07:06:23;2.50;;;1.00;;
2810;SDS011;1413;52.440;13.506;2022-10-16T07:08:51;2.95;;;1.25;;
2810;SDS011;1413;52.440;13.506;2022-10-16T07:11:19;3.58;;;1.30;;
2810;SDS011;1413;52.440;13.506;2022-10-16T07:13:47;4.45;;;1.30;;
2810;SDS011;1413;52.440;13.506;2022-10-16T07:16:20;2.22;;;0.98;;
2810;SDS011;1413;52.440;13.506;2022-10-16T07:18:48;4.35;;;1.10;;
2810;SDS011;1413;52.440;13.506;2022-10-16T07:21:22;3.42;;;1.15;;
2810;SDS011;1413;52.440;13.506;2022-10-16T07:23:51;3.30;;;1.20;;
2810;SDS011;1413;52.440;13.506;2022-10-16T07:26:19;3.80;;;1.00;;
2810;SDS011;1413;52.440;13.506;2022-10-16T07:28:46;2.83;;;1.10;;
2810;SDS011;1413;52.440;13.506;2022-10-16T07:31:14;2.70;;;1.20;;
2810;SDS011;1413;52.440;13.506;2022-10-16T07:33:42;3.17;;;0.90;;
2810;SDS011;1413;52.440;13.506;2022-10-16T07:36:13;3.13;;;1.00;;
2810;SDS011;1413;52.440;13.506;2022-10-16T07:38:43;3.13;;;0.75;;
2810;SDS011;1413;52.440;13.506;2022-10-16T07:41:11;2.45;;;0.80;;
2810;SDS011;1413;52.440;13.506;2022-10-16T07:43:39;2.50;;;0.80;;
2810;SDS011;1413;52.440;13.506;2022-10-16T07:46:07;3.10;;;0.90;;
2810;SDS011;1413;52.440;13.506;2022-10-16T07:48:34;3.97;;;0.80;;
2810;SDS011;1413;52.440;13.506;2022-10-16T07:51:03;2.30;;;0.80;;
2810;SDS011;1413;52.440;13.506;2022-10-16T07:53:30;4.28;;;0.80;;
2810;SDS011;1413;52.440;13.506;2022-10-16T07:55:59;2.90;;;1.00;;
2810;SDS011;1413;52.440;13.506;2022-10-16T07:58:27;3.50;;;0.90;;
2810;SDS011;1413;52.440;13.506;2022-10-16T08:00:55;2.67;;;0.70;;
2810;SDS011;1413;52.440;13.506;2022-10-16T08:03:22;3.38;;;0.73;;
2810;SDS011;1413;52.440;13.506;2022-10-16T08:05:50;2.10;;;0.70;;
2810;SDS011;1413;52.440;13.506;2022-10-16T08:08:18;2.10;;;0.82;;
2810;SDS011;1413;52.440;13.506;2022-10-16T08:10:45;3.10;;;0.88;;
2810;SDS011;1413;52.440;13.506;2022-10-16T08:13:14;3.88;;;0.85;;
2810;SDS011;1413;52.440;13.506;2022-10-16T08:15:41;2.58;;;0.90;;
2810;SDS011;1413;52.440;13.506;2022-10-16T08:18:09;2.10;;;0.77;;
2810;SDS011;1413;52.440;13.506;2022-10-16T08:20:37;4.03;;;0.98;;
2810;SDS011;1413;52.440;13.506;2022-10-16T08:23:04;2.83;;;0.85;;
2810;SDS011;1413;52.440;13.506;2022-10-16T08:25:33;3.55;;;0.90;;
2810;SDS011;1413;52.440;13.506;2022-10-16T08:28:02;3.22;;;0.77;;
2810;SDS011;1413;52.440;13.506;2022-10-16T08:30:31;3.03;;;0.85;;
2810;SDS011;1413;52.440;13.506;2022-10-16T08:32:58;1.95;;;0.80;;
2810;SDS011;1413;52.440;13.506;2022-10-16T08:35:26;3.42;;;0.80;;
2810;SDS011;1413;52.440;13.506;2022-10-16T08:37:53;2.78;;;0.65;;
2810;SDS011;1413;52.440;13.506;2022-10-16T08:40:22;3.15;;;0.90;;
2810;SDS011;1413;52.440;13.506;2022-10-16T08:43:03;2.35;;;0.95;;
2810;SDS011;1413;52.440;13.506;2022-10-16T08:45:45;1.83;;;0.70;;
2810;SDS011;1413;52.440;13.506;2022-10-16T08:48:17;4.95;;;0.80;;
2810;SDS011;1413;52.440;13.506;2022-10-16T08:50:46;3.22;;;0.70;;
2810;SDS011;1413;52.440;13.506;2022-10-16T08:53:15;2.55;;;0.90;;
2810;SDS011;1413;52.440;13.506;2022-10-16T08:55:45;3.00;;;0.90;;
2810;SDS011;1413;52.440;13.506;2022-10-16T08:58:14;2.75;;;0.70;;
2810;SDS011;1413;52.440;13.506;2022-10-16T09:00:42;5.38;;;0.80;;
2810;SDS011;1413;52.440;13.506;2022-10-16T09:03:13;3.05;;;0.70;;
2810;SDS011;1413;52.440;13.506;2022-10-16T09:05:57;2.33;;;0.60;;
2810;SDS011;1413;52.440;13.506;2022-10-16T09:08:31;2.92;;;0.70;;
2810;SDS011;1413;52.440;13.506;2022-10-16T09:11:03;3.30;;;0.90;;
2810;SDS011;1413;52.440;13.506;2022-10-16T09:13:35;1.73;;;0.60;;
2810;SDS011;1413;52.440;13.506;2022-10-16T09:16:10;3.83;;;0.77;;
2810;SDS011;1413;52.440;13.506;2022-10-16T09:18:43;4.28;;;0.80;;
2810;SDS011;1413;52.440;13.506;2022-10-16T09:21:14;2.55;;;0.80;;
2810;SDS011;1413;52.440;13.506;2022-10-16T09:23:42;3.17;;;0.70;;
2810;SDS011;1413;52.440;13.506;2022-10-16T09:26:09;3.47;;;0.90;;
2810;SDS011;1413;52.440;13.506;2022-10-16T09:28:38;2.55;;;0.70;;
2810;SDS011;1413;52.440;13.506;2022-10-16T09:31:05;4.10;;;0.82;;
2810;SDS011;1413;52.440;13.506;2022-10-16T09:33:33;2.60;;;0.70;;
2810;SDS011;1413;52.440;13.506;2022-10-16T09:36:04;3.20;;;0.88;;
2810;SDS011;1413;52.440;13.506;2022-10-16T09:38:33;2.30;;;0.80;;
2810;SDS011;1413;52.440;13.506;2022-10-16T09:41:02;2.70;;;0.70;;
2810;SDS011;1413;52.440;13.506;2022-10-16T09:43:32;3.75;;;0.60;;
2810;SDS011;1413;52.440;13.506;2022-10-16T09:46:02;3.80;;;0.70;;
2810;SDS011;1413;52.440;13.506;2022-10-16T09:48:31;2.65;;;0.73;;
2810;SDS011;1413;52.440;13.506;2022-10-16T09:51:02;2.22;;;0.70;;
2810;SDS011;1413;52.440;13.506;2022-10-16T09:53:41;2.45;;;0.80;;
2810;SDS011;1413;52.440;13.506;2022-10-16T09:56:09;2.92;;;0.73;;
2810;SDS011;1413;52.440;13.506;2022-10-16T09:58:42;1.90;;;0.50;;
2810;SDS011;1413;52.440;13.506;2022-10-16T10:01:12;2.08;;;0.63;;
2810;SDS011;1413;52.440;13.506;2022-10-16T10:03:40;2.97;;;0.80;;
2810;SDS011;1413;52.440;13.506;2022-10-16T10:06:15;4.18;;;0.77;;
2810;SDS011;1413;52.440;13.506;2022-10-16T10:11:37;2.65;;;0.70;;
2810;SDS011;1413;52.440;13.506;2022-10-16T10:14:05;2.92;;;0.73;;
2810;SDS011;1413;52.440;13.506;2022-10-16T10:16:32;3.00;;;0.68;;
2810;SDS011;1413;52.440;13.506;2022-10-16T10:19:00;2.13;;;0.60;;
2810;SDS011;1413;52.440;13.506;2022-10-16T10:21:27;2.08;;;0.63;;
2810;SDS011;1413;52.440;13.506;2022-10-16T10:23:55;3.30;;;0.70;;
2810;SDS011;1413;52.440;13.506;2022-10-16T10:26:23;2.65;;;0.57;;
2810;SDS011;1413;52.440;13.506;2022-10-16T10:28:54;2.10;;;0.70;;
2810;SDS011;1413;52.440;13.506;2022-10-16T10:31:27;3.20;;;0.60;;
2810;SDS011;1413;52.440;13.506;2022-10-16T10:33:57;2.17;;;0.80;;
2810;SDS011;1413;52.440;13.506;2022-10-16T10:36:29;1.35;;;0.60;;
2810;SDS011;1413;52.440;13.506;2022-10-16T10:38:58;2.97;;;0.70;;
2810;SDS011;1413;52.440;13.506;2022-10-16T10:44:18;2.50;;;0.50;;
2810;SDS011;1413;52.440;13.506;2022-10-16T10:46:50;1.70;;;0.55;;
2810;SDS011;1413;52.440;13.506;2022-10-16T10:49:28;1.75;;;0.45;;
2810;SDS011;1413;52.440;13.506;2022-10-16T10:51:59;3.63;;;0.60;;
2810;SDS011;1413;52.440;13.506;2022-10-16T10:54:31;2.05;;;0.52;;
2810;SDS011;1413;52.440;13.506;2022-10-16T10:57:02;3.85;;;0.50;;
2810;SDS011;1413;52.440;13.506;2022-10-16T10:59:39;1.52;;;0.60;;
2810;SDS011;1413;52.440;13.506;2022-10-16T11:02:10;3.63;;;0.68;;
2810;SDS011;1413;52.440;13.506;2022-10-16T11:04:53;3.03;;;0.60;;
2810;SDS011;1413;52.440;13.506;2022-10-16T11:07:24;2.33;;;0.60;;
2810;SDS011;1413;52.440;13.506;2022-10-16T11:09:53;2.30;;;0.60;;
2810;SDS011;1413;52.440;13.506;2022-10-16T11:12:24;2.53;;;0.60;;
2810;SDS011;1413;52.440;13.506;2022-10-16T11:14:55;1.77;;;0.50;;
2810;SDS011;1413;52.440;13.506;2022-10-16T11:17:25;3.55;;;0.65;;
2810;SDS011;1413;52.440;13.506;2022-10-16T11:19:56;1.77;;;0.50;;
2810;SDS011;1413;52.440;13.506;2022-10-16T11:22:25;1.70;;;0.50;;
2810;SDS011;1413;52.440;13.506;2022-10-16T11:24:55;2.65;;;0.50;;
2810;SDS011;1413;52.440;13.506;2022-10-16T11:27:29;3.05;;;0.60;;
2810;SDS011;1413;52.440;13.506;2022-10-16T11:30:00;3.33;;;0.93;;
2810;SDS011;1413;52.440;13.506;2022-10-16T11:32:29;1.98;;;0.55;;
2810;SDS011;1413;52.440;13.506;2022-10-16T11:35:01;2.45;;;0.40;;
2810;SDS011;1413;52.440;13.506;2022-10-16T11:39:58;4.60;;;0.65;;
2810;SDS011;1413;52.440;13.506;2022-10-16T11:42:30;2.08;;;0.47;;
2810;SDS011;1413;52.440;13.506;2022-10-16T11:45:03;3.10;;;0.50;;
2810;SDS011;1413;52.440;13.506;2022-10-16T11:47:35;1.85;;;0.50;;
2810;SDS011;1413;52.440;13.506;2022-10-16T11:50:23;1.80;;;0.40;;
2810;SDS011;1413;52.440;13.506;2022-10-16T11:52:53;1.65;;;0.80;;
2810;SDS011;1413;52.440;13.506;2022-10-16T11:55:23;2.45;;;0.55;;
2810;SDS011;1413;52.440;13.506;2022-10-16T11:57:51;1.17;;;0.40;;
2810;SDS011;1413;52.440;13.506;2022-10-16T12:00:23;5.45;;;0.70;;
2810;SDS011;1413;52.440;13.506;2022-10-16T12:02:54;4.78;;;0.55;;
2810;SDS011;1413;52.440;13.506;2022-10-16T12:05:24;1.90;;;0.50;;
2810;SDS011;1413;52.440;13.506;2022-10-16T12:07:57;1.23;;;0.30;;
2810;SDS011;1413;52.440;13.506;2022-10-16T12:10:29;1.70;;;0.50;;
2810;SDS011;1413;52.440;13.506;2022-10-16T12:12:58;3.83;;;0.55;;
2810;SDS011;1413;52.440;13.506;2022-10-16T12:15:27;1.75;;;0.45;;
2810;SDS011;1413;52.440;13.506;2022-10-16T12:18:21;1.48;;;0.50;;
2810;SDS011;1413;52.440;13.506;2022-10-16T12:20:54;2.00;;;0.50;;
2810;SDS011;1413;52.440;13.506;2022-10-16T12:23:24;1.65;;;0.38;;
2810;SDS011;1413;52.440;13.506;2022-10-16T12:25:53;2.70;;;0.50;;
2810;SDS011;1413;52.440;13.506;2022-10-16T12:28:22;1.02;;;0.38;;
2810;SDS011;1413;52.440;13.506;2022-10-16T12:30:53;0.98;;;0.38;;
2810;SDS011;1413;52.440;13.506;2022-10-16T12:33:22;1.77;;;0.70;;
2810;SDS011;1413;52.440;13.506;2022-10-16T12:35:50;1.65;;;0.30;;
2810;SDS011;1413;52.440;13.506;2022-10-16T12:38:19;1.83;;;0.40;;
2810;SDS011;1413;52.440;13.506;2022-10-16T12:40:47;2.15;;;0.68;;
2810;SDS011;1413;52.440;13.506;2022-10-16T12:43:35;2.60;;;0.82;;
2810;SDS011;1413;52.440;13.506;2022-10-16T12:46:06;1.27;;;0.40;;
2810;SDS011;1413;52.440;13.506;2022-10-16T12:48:47;2.55;;;0.40;;
2810;SDS011;1413;52.440;13.506;2022-10-16T12:51:33;3.10;;;0.60;;
2810;SDS011;1413;52.440;13.506;2022-10-16T12:54:01;3.63;;;0.40;;
2810;SDS011;1413;52.440;13.506;2022-10-16T12:56:33;1.13;;;0.40;;
2810;SDS011;1413;52.440;13.506;2022-10-16T12:59:04;2.22;;;0.40;;
2810;SDS011;1413;52.440;13.506;2022-10-16T13:01:39;1.58;;;0.50;;
2810;SDS011;1413;52.440;13.506;2022-10-16T13:04:27;1.70;;;0.40;;
2810;SDS011;1413;52.440;13.506;2022-10-16T13:06:58;1.55;;;0.40;;
2810;SDS011;1413;52.440;13.506;2022-10-16T13:09:34;1.85;;;0.40;;
2810;SDS011;1413;52.440;13.506;2022-10-16T13:12:09;1.67;;;0.60;;
2810;SDS011;1413;52.440;13.506;2022-10-16T13:14:52;1.73;;;0.40;;
2810;SDS011;1413;52.440;13.506;2022-10-16T13:17:25;3.25;;;0.50;;
2810;SDS011;1413;52.440;13.506;2022-10-16T13:19:57;2.00;;;0.57;;
2810;SDS011;1413;52.440;13.506;2022-10-16T13:22:28;1.83;;;0.50;;
2810;SDS011;1413;52.440;13.506;2022-10-16T13:25:01;2.58;;;0.80;;
2810;SDS011;1413;52.440;13.506;2022-10-16T13:27:34;4.30;;;0.60;;
2810;SDS011;1413;52.440;13.506;2022-10-16T13:30:07;1.88;;;0.60;;
2810;SDS011;1413;52.440;13.506;2022-10-16T13:32:37;1.38;;;0.43;;
2810;SDS011;1413;52.440;13.506;2022-10-16T13:35:15;2.88;;;0.60;;
2810;SDS011;1413;52.440;13.506;2022-10-16T13:37:45;1.98;;;0.50;;
2810;SDS011;1413;52.440;13.506;2022-10-16T13:40:17;2.10;;;0.50;;
2810;SDS011;1413;52.440;13.506;2022-10-16T13:42:45;2.45;;;0.50;;
2810;SDS011;1413;52.440;13.506;2022-10-16T13:45:19;1.80;;;0.50;;
2810;SDS011;1413;52.440;13.506;2022-10-16T13:47:48;1.65;;;0.52;;
2810;SDS011;1413;52.440;13.506;2022-10-16T13:50:16;2.78;;;0.60;;
2810;SDS011;1413;52.440;13.506;2022-10-16T13:52:44;1.92;;;0.50;;
2810;SDS011;1413;52.440;13.506;2022-10-16T13:55:12;1.73;;;0.50;;
2810;SDS011;1413;52.440;13.506;2022-10-16T13:57:39;3.13;;;0.70;;
2810;SDS011;1413;52.440;13.506;2022-10-16T14:00:20;4.88;;;0.70;;
2810;SDS011;1413;52.440;13.506;2022-10-16T14:02:54;2.15;;;0.60;;
2810;SDS011;1413;52.440;13.506;2022-10-16T14:05:22;2.55;;;0.40;;
2810;SDS011;1413;52.440;13.506;2022-10-16T14:07:50;2.05;;;0.60;;
2810;SDS011;1413;52.440;13.506;2022-10-16T14:10:20;2.22;;;0.57;;
2810;SDS011;1413;52.440;13.506;2022-10-16T14:12:54;3.47;;;0.65;;
2810;SDS011;1413;52.440;13.506;2022-10-16T14:15:21;1.95;;;0.35;;
2810;SDS011;1413;52.440;13.506;2022-10-16T14:17:50;1.65;;;0.50;;
2810;SDS011;1413;52.440;13.506;2022-10-16T14:20:20;1.10;;;0.40;;
2810;SDS011;1413;52.440;13.506;2022-10-16T14:22:48;1.52;;;0.40;;
2810;SDS011;1413;52.440;13.506;2022-10-16T14:25:26;1.73;;;0.57;;
2810;SDS011;1413;52.440;13.506;2022-10-16T14:27:57;2.70;;;0.70;;
2810;SDS011;1413;52.440;13.506;2022-10-16T14:30:25;1.35;;;0.40;;
2810;SDS011;1413;52.440;13.506;2022-10-16T14:32:54;1.73;;;0.50;;
2810;SDS011;1413;52.440;13.506;2022-10-16T14:35:24;2.72;;;0.60;;
2810;SDS011;1413;52.440;13.506;2022-10-16T14:37:52;2.35;;;0.50;;
2810;SDS011;1413;52.440;13.506;2022-10-16T14:40:20;3.10;;;0.55;;
2810;SDS011;1413;52.440;13.506;2022-10-16T14:42:48;2.88;;;0.60;;
2810;SDS011;1413;52.440;13.506;2022-10-16T14:45:18;6.60;;;0.80;;
2810;SDS011;1413;52.440;13.506;2022-10-16T14:47:47;5.75;;;0.63;;
2810;SDS011;1413;52.440;13.506;2022-10-16T14:50:16;2.85;;;0.50;;
2810;SDS011;1413;52.440;13.506;2022-10-16T14:52:44;1.60;;;0.60;;
2810;SDS011;1413;52.440;13.506;2022-10-16T14:55:12;2.72;;;1.00;;
2810;SDS011;1413;52.440;13.506;2022-10-16T14:57:39;2.55;;;0.98;;
2810;SDS011;1413;52.440;13.506;2022-10-16T15:00:10;3.72;;;0.80;;
2810;SDS011;1413;52.440;13.506;2022-10-16T15:02:40;3.85;;;1.10;;
2810;SDS011;1413;52.440;13.506;2022-10-16T15:05:11;2.38;;;0.80;;
2810;SDS011;1413;52.440;13.506;2022-10-16T15:07:39;2.20;;;0.70;;
2810;SDS011;1413;52.440;13.506;2022-10-16T15:10:08;1.83;;;0.70;;
2810;SDS011;1413;52.440;13.506;2022-10-16T15:12:36;2.28;;;0.52;;
2810;SDS011;1413;52.440;13.506;2022-10-16T15:15:10;1.90;;;0.60;;
2810;SDS011;1413;52.440;13.506;2022-10-16T15:17:42;1.67;;;0.60;;
2810;SDS011;1413;52.440;13.506;2022-10-16T15:20:10;2.78;;;0.70;;
2810;SDS011;1413;52.440;13.506;2022-10-16T15:22:37;1.85;;;0.60;;